Time;durP1;ratioP1;P1;durP2;ratioP2;P2;SDS_P1;SDS_P2;PMS_P1;PMS_P2;Temp;Humidity;BMP_temperature;BMP_pressure;BME280_temperature;BME280_humidity;BME280_pressure;Samples;Min_cycle;Max_cycle;Signal;HPM_P1;HPM_P2
2023/01/16 00:01:21;;;;;;;3.28;1.33;;;;;;;;;;4992677;28;20046;-74
2023/01/16 00:03:47;;;;;;;3.92;1.15;;;;;;;;;;4992524;28;20133;-73
2023/01/16 00:06:14;;;;;;;3.10;0.93;;;;;;;;;;4992369;28;20046;-73
2023/01/16 00:08:41;;;;;;;1.75;0.90;;;;;;;;;;4992818;28;20133;-74
2023/01/16 00:11:10;;;;;;;3.00;1.20;;;;;;;;;;4992454;28;20387;-73
2023/01/16 00:13:37;;;;;;;3.13;1.08;;;;;;;;;;4992616;28;20420;-74
2023/01/16 00:16:04;;;;;;;3.28;1.00;;;;;;;;;;4992525;28;20089;-74
2023/01/16 00:18:31;;;;;;;4.47;0.90;;;;;;;;;;4992457;28;20047;-74
2023/01/16 00:20:57;;;;;;;2.65;0.73;;;;;;;;;;4992312;28;20478;-74
2023/01/16 00:23:24;;;;;;;3.45;1.63;;;;;;;;;;4991916;28;20568;-74
2023/01/16 00:25:50;;;;;;;2.35;0.88;;;;;;;;;;4992433;28;20046;-74
2023/01/16 00:28:18;;;;;;;2.30;1.10;;;;;;;;;;4973208;28;20133;-74
2023/01/16 00:30:46;;;;;;;4.15;1.77;;;;;;;;;;4973596;28;20133;-74
2023/01/16 00:33:13;;;;;;;3.20;1.17;;;;;;;;;;4992002;28;20409;-75
2023/01/16 00:35:40;;;;;;;2.60;1.23;;;;;;;;;;4992428;28;20081;-75
2023/01/16 00:38:06;;;;;;;3.75;1.55;;;;;;;;;;4992365;28;20137;-75
2023/01/16 00:40:33;;;;;;;2.63;1.13;;;;;;;;;;4992604;28;20046;-74
2023/01/16 00:43:00;;;;;;;2.42;1.35;;;;;;;;;;4992197;28;20753;-73
2023/01/16 00:45:28;;;;;;;2.40;0.90;;;;;;;;;;4992348;28;20042;-74
2023/01/16 00:47:54;;;;;;;3.25;0.90;;;;;;;;;;4992159;28;20042;-73
2023/01/16 00:50:21;;;;;;;4.13;2.17;;;;;;;;;;4992278;28;20221;-74
2023/01/16 00:52:48;;;;;;;2.65;1.20;;;;;;;;;;4991971;28;20505;-73
2023/01/16 00:55:14;;;;;;;2.63;1.00;;;;;;;;;;4992190;28;20042;-74
2023/01/16 00:57:41;;;;;;;2.53;1.02;;;;;;;;;;4992253;28;20068;-74
2023/01/16 01:00:09;;;;;;;2.58;1.00;;;;;;;;;;4991814;28;20048;-75
2023/01/16 01:02:37;;;;;;;4.07;1.00;;;;;;;;;;4992126;28;20065;-73
2023/01/16 01:05:06;;;;;;;2.67;0.95;;;;;;;;;;4992164;28;20038;-75
2023/01/16 01:07:32;;;;;;;3.15;1.10;;;;;;;;;;4992513;28;20054;-74
2023/01/16 01:09:59;;;;;;;2.63;1.30;;;;;;;;;;4991910;28;20070;-75
2023/01/16 01:12:26;;;;;;;2.85;0.95;;;;;;;;;;4992030;28;20057;-74
2023/01/16 01:14:52;;;;;;;2.47;0.93;;;;;;;;;;4991618;28;20093;-75
2023/01/16 01:17:19;;;;;;;2.50;1.02;;;;;;;;;;4992310;28;20132;-75
2023/01/16 01:19:47;;;;;;;2.80;1.10;;;;;;;;;;4995241;28;20564;-73
2023/01/16 01:22:15;;;;;;;2.25;0.90;;;;;;;;;;4994990;28;20623;-74
2023/01/16 01:24:42;;;;;;;1.83;0.90;;;;;;;;;;4995132;28;20493;-74
2023/01/16 01:27:09;;;;;;;2.78;1.05;;;;;;;;;;4995536;28;20226;-74
2023/01/16 01:29:35;;;;;;;2.35;1.00;;;;;;;;;;4995265;28;20060;-74
2023/01/16 01:32:02;;;;;;;2.50;1.05;;;;;;;;;;4994951;28;20049;-75
2023/01/16 01:34:31;;;;;;;4.25;1.23;;;;;;;;;;4994798;28;20046;-75
2023/01/16 01:36:59;;;;;;;2.85;1.00;;;;;;;;;;4995123;28;20390;-74
2023/01/16 01:39:25;;;;;;;1.30;0.80;;;;;;;;;;4995144;28;20046;-75
2023/01/16 01:42:41;;;;;;;3.97;1.25;;;;;;;;;;4997346;28;20058;-75
2023/01/16 01:44:49;;;;;;;3.70;1.00;;;;;;;;;;4994681;28;20124;-75
2023/01/16 01:47:17;;;;;;;2.30;1.00;;;;;;;;;;4995249;28;20145;-75
2023/01/16 01:49:44;;;;;;;2.53;0.90;;;;;;;;;;4995036;28;20054;-75
2023/01/16 01:52:13;;;;;;;3.33;1.08;;;;;;;;;;4994895;28;20054;-74
2023/01/16 01:54:44;;;;;;;2.78;1.08;;;;;;;;;;4994860;28;20141;-74
2023/01/16 01:57:17;;;;;;;4.05;1.30;;;;;;;;;;4995115;28;20051;-73
2023/01/16 01:59:48;;;;;;;2.95;1.23;;;;;;;;;;4994499;28;20049;-74
2023/01/16 02:02:20;;;;;;;3.22;1.02;;;;;;;;;;4994813;28;20046;-74
2023/01/16 02:04:49;;;;;;;4.85;1.20;;;;;;;;;;4989628;28;20069;-74
2023/01/16 02:07:19;;;;;;;3.63;1.27;;;;;;;;;;4975282;28;20098;-74
2023/01/16 02:09:46;;;;;;;5.57;0.90;;;;;;;;;;4975278;28;20082;-73
2023/01/16 02:12:14;;;;;;;3.00;0.80;;;;;;;;;;4975091;28;20080;-74
2023/01/16 02:14:43;;;;;;;3.50;1.23;;;;;;;;;;4988498;28;20057;-74
2023/01/16 02:20:13;;;;;;;3.03;1.10;;;;;;;;;;4994106;28;20532;-74
2023/01/16 02:22:55;;;;;;;3.00;0.90;;;;;;;;;;4994122;28;20042;-74
2023/01/16 02:25:50;;;;;;;2.38;1.10;;;;;;;;;;4994328;28;20141;-74
2023/01/16 02:31:49;;;;;;;2.75;0.80;;;;;;;;;;4992113;28;20061;-74
2023/01/16 02:34:40;;;;;;;4.53;1.40;;;;;;;;;;4982778;28;20223;-74
2023/01/16 02:37:16;;;;;;;1.90;1.00;;;;;;;;;;4977333;28;20093;-74
2023/01/16 02:39:50;;;;;;;3.67;1.05;;;;;;;;;;4980870;28;20058;-73
2023/01/16 02:42:25;;;;;;;2.83;1.08;;;;;;;;;;4997409;28;20050;-74
2023/01/16 02:45:01;;;;;;;2.40;0.93;;;;;;;;;;4994899;28;20084;-74
2023/01/16 02:47:36;;;;;;;4.10;1.02;;;;;;;;;;4994418;28;20061;-74
2023/01/16 02:50:12;;;;;;;3.92;1.17;;;;;;;;;;4994025;28;20053;-74
2023/01/16 02:52:44;;;;;;;3.80;1.27;;;;;;;;;;4994073;28;20042;-74
2023/01/16 02:55:16;;;;;;;2.83;0.90;;;;;;;;;;4993857;28;20043;-75
2023/01/16 02:57:47;;;;;;;2.38;0.70;;;;;;;;;;4994259;28;20046;-74
2023/01/16 03:00:19;;;;;;;2.15;0.90;;;;;;;;;;4995151;28;20053;-75
2023/01/16 03:02:47;;;;;;;3.97;1.38;;;;;;;;;;5010074;28;20077;-75
2023/01/16 03:05:13;;;;;;;2.05;0.80;;;;;;;;;;5014212;28;20055;-74
2023/01/16 03:07:55;;;;;;;2.10;0.82;;;;;;;;;;5007269;28;20052;-75
2023/01/16 03:10:39;;;;;;;1.67;0.80;;;;;;;;;;5000606;28;20529;-73
2023/01/16 03:13:18;;;;;;;1.98;0.82;;;;;;;;;;4994440;28;20042;-75
2023/01/16 03:15:52;;;;;;;4.05;1.27;;;;;;;;;;4994220;28;20110;-75
2023/01/16 03:18:30;;;;;;;1.75;0.80;;;;;;;;;;4993455;28;20060;-75
2023/01/16 03:21:04;;;;;;;2.15;1.00;;;;;;;;;;4993359;28;20053;-75
2023/01/16 03:23:40;;;;;;;2.80;0.90;;;;;;;;;;4994155;28;20042;-74
2023/01/16 03:26:14;;;;;;;2.03;0.80;;;;;;;;;;4993638;28;20486;-76
2023/01/16 03:28:50;;;;;;;2.08;0.80;;;;;;;;;;4993485;28;20053;-74
2023/01/16 03:31:21;;;;;;;2.15;0.80;;;;;;;;;;4994187;28;20057;-75
2023/01/16 03:34:02;;;;;;;1.80;0.77;;;;;;;;;;4993867;28;20046;-75
2023/01/16 03:36:33;;;;;;;2.30;0.90;;;;;;;;;;4993975;28;20093;-75
2023/01/16 03:39:01;;;;;;;1.70;0.90;;;;;;;;;;4998462;28;20053;-75
2023/01/16 03:41:30;;;;;;;1.60;0.70;;;;;;;;;;4992779;28;20125;-74
2023/01/16 03:44:00;;;;;;;2.75;0.80;;;;;;;;;;4991741;28;20494;-73
2023/01/16 03:46:30;;;;;;;3.00;0.80;;;;;;;;;;4989850;28;20121;-76
2023/01/16 03:49:03;;;;;;;3.15;1.00;;;;;;;;;;4992549;28;20081;-75
2023/01/16 03:51:34;;;;;;;2.55;1.20;;;;;;;;;;4992808;28;20050;-76
2023/01/16 03:54:05;;;;;;;2.90;1.05;;;;;;;;;;4993188;28;20416;-76
2023/01/16 03:56:37;;;;;;;1.83;1.02;;;;;;;;;;4993260;28;20042;-75
2023/01/16 03:59:04;;;;;;;2.17;1.05;;;;;;;;;;4992280;28;20046;-76
2023/01/16 04:01:38;;;;;;;2.17;0.90;;;;;;;;;;4992792;28;20121;-75
2023/01/16 04:04:09;;;;;;;1.30;0.70;;;;;;;;;;4992817;28;20108;-76
2023/01/16 04:06:42;;;;;;;1.48;0.93;;;;;;;;;;4984902;28;20061;-76
2023/01/16 04:09:13;;;;;;;2.28;1.02;;;;;;;;;;4992621;28;20112;-76
2023/01/16 04:11:40;;;;;;;;;;;;;;;;;;4992993;28;20050;-76
2023/01/16 04:14:10;;;;;;;1.60;0.93;;;;;;;;;;4992508;28;19960;-76
2023/01/16 04:16:39;;;;;;;3.80;1.20;;;;;;;;;;4992787;28;20128;-76
2023/01/16 04:19:08;;;;;;;2.20;0.82;;;;;;;;;;4992795;28;20516;-76
2023/01/16 04:21:35;;;;;;;2.08;0.85;;;;;;;;;;4992596;28;20048;-73
2023/01/16 04:24:03;;;;;;;1.95;0.70;;;;;;;;;;4992641;28;20046;-75
2023/01/16 04:26:30;;;;;;;1.77;0.80;;;;;;;;;;4992471;28;20069;-75
2023/01/16 04:28:56;;;;;;;2.17;1.10;;;;;;;;;;4992203;28;20042;-75
2023/01/16 04:31:24;;;;;;;1.63;0.93;;;;;;;;;;4992356;28;20051;-75
2023/01/16 04:33:50;;;;;;;1.83;0.82;;;;;;;;;;4992136;28;20078;-75
2023/01/16 04:36:18;;;;;;;2.50;0.80;;;;;;;;;;4992249;28;20417;-74
2023/01/16 04:38:45;;;;;;;2.67;1.00;;;;;;;;;;4992696;28;20129;-74
2023/01/16 04:41:12;;;;;;;1.70;0.82;;;;;;;;;;4992516;28;20420;-75
2023/01/16 04:43:38;;;;;;;1.73;0.80;;;;;;;;;;4992249;28;20046;-74
2023/01/16 04:46:05;;;;;;;2.17;0.70;;;;;;;;;;4992420;28;20560;-75
2023/01/16 04:48:31;;;;;;;2.97;1.08;;;;;;;;;;4992301;28;20046;-76
2023/01/16 04:50:58;;;;;;;1.77;0.90;;;;;;;;;;4992284;28;20564;-74
2023/01/16 04:56:02;;;;;;;2.30;0.82;;;;;;;;;;5031179;28;20049;-72
2023/01/16 04:58:28;;;;;;;1.90;0.80;;;;;;;;;;5035458;28;20049;-73
2023/01/16 05:00:55;;;;;;;2.28;1.00;;;;;;;;;;5035029;28;20400;-72
2023/01/16 05:03:21;;;;;;;2.05;1.20;;;;;;;;;;5034990;28;20059;-74
2023/01/16 05:05:48;;;;;;;2.35;1.00;;;;;;;;;;5014511;28;20492;-73
2023/01/16 05:08:18;;;;;;;1.65;0.80;;;;;;;;;;5015406;28;20049;-73
2023/01/16 05:10:44;;;;;;;2.55;0.98;;;;;;;;;;5014843;28;20524;-74
2023/01/16 05:13:12;;;;;;;2.38;0.85;;;;;;;;;;5014540;28;20056;-73
2023/01/16 05:15:39;;;;;;;3.15;1.20;;;;;;;;;;5014651;28;20056;-73
2023/01/16 05:18:06;;;;;;;5.55;1.83;;;;;;;;;;5014979;28;20465;-74
2023/01/16 05:20:32;;;;;;;3.85;1.45;;;;;;;;;;5014832;28;20448;-72
2023/01/16 05:22:59;;;;;;;1.90;0.88;;;;;;;;;;5015043;28;20049;-73
2023/01/16 05:25:26;;;;;;;2.15;0.80;;;;;;;;;;5015342;28;20052;-73
2023/01/16 05:27:53;;;;;;;1.83;0.88;;;;;;;;;;5014515;28;20520;-73
2023/01/16 05:30:22;;;;;;;3.80;1.40;;;;;;;;;;5014840;28;20555;-74
2023/01/16 05:32:48;;;;;;;2.80;1.20;;;;;;;;;;5014841;28;20102;-73
2023/01/16 05:35:15;;;;;;;3.55;1.13;;;;;;;;;;5015242;28;20106;-73
2023/01/16 05:37:42;;;;;;;2.55;1.15;;;;;;;;;;5014562;28;20050;-74
2023/01/16 05:40:11;;;;;;;2.70;1.00;;;;;;;;;;5014342;28;20037;-74
2023/01/16 05:42:37;;;;;;;2.80;1.00;;;;;;;;;;5014837;28;20511;-74
2023/01/16 05:45:08;;;;;;;2.28;1.00;;;;;;;;;;5015456;28;20053;-75
2023/01/16 05:47:36;;;;;;;2.30;1.15;;;;;;;;;;5016887;28;20549;-73
2023/01/16 05:50:04;;;;;;;2.53;1.08;;;;;;;;;;5017717;28;20144;-73
2023/01/16 05:52:30;;;;;;;2.25;0.80;;;;;;;;;;5018062;28;20551;-73
2023/01/16 05:54:57;;;;;;;1.83;0.85;;;;;;;;;;5014836;28;20497;-73
2023/01/16 05:57:24;;;;;;;1.95;0.88;;;;;;;;;;5014454;28;20501;-74
2023/01/16 05:59:51;;;;;;;2.28;0.82;;;;;;;;;;5014317;28;20077;-75
2023/01/16 06:02:19;;;;;;;2.28;0.85;;;;;;;;;;5014795;28;20054;-74
2023/01/16 06:04:47;;;;;;;2.33;1.02;;;;;;;;;;5013353;28;20096;-71
2023/01/16 06:07:17;;;;;;;1.83;0.82;;;;;;;;;;5014914;28;20146;-72
2023/01/16 06:09:44;;;;;;;2.13;0.90;;;;;;;;;;5014162;28;20073;-74
2023/01/16 06:12:15;;;;;;;2.55;0.80;;;;;;;;;;5014626;28;20137;-74
2023/01/16 06:14:42;;;;;;;1.52;0.80;;;;;;;;;;5014303;28;20080;-74
2023/01/16 06:17:08;;;;;;;4.70;1.10;;;;;;;;;;5014428;28;20050;-73
2023/01/16 06:19:35;;;;;;;3.17;1.05;;;;;;;;;;5013216;28;20046;-74
2023/01/16 06:22:03;;;;;;;4.03;1.23;;;;;;;;;;5014364;28;20042;-73
2023/01/16 06:24:30;;;;;;;3.33;1.40;;;;;;;;;;5014310;28;20037;-74
2023/01/16 06:26:56;;;;;;;5.20;1.48;;;;;;;;;;5014197;28;20060;-73
2023/01/16 06:29:23;;;;;;;3.20;1.20;;;;;;;;;;5013914;28;20038;-73
2023/01/16 06:31:49;;;;;;;3.10;1.02;;;;;;;;;;5013757;28;20088;-73
2023/01/16 06:34:16;;;;;;;3.53;1.17;;;;;;;;;;5013772;28;20648;-73
2023/01/16 06:36:45;;;;;;;3.85;1.30;;;;;;;;;;5013873;28;20056;-73
2023/01/16 06:39:14;;;;;;;3.45;1.02;;;;;;;;;;5013469;28;20474;-73
2023/01/16 06:41:40;;;;;;;3.17;1.10;;;;;;;;;;5013464;28;20045;-73
2023/01/16 06:44:08;;;;;;;3.67;1.40;;;;;;;;;;5013493;28;20046;-73
2023/01/16 06:46:34;;;;;;;2.40;1.20;;;;;;;;;;5014026;28;20492;-74
2023/01/16 06:49:01;;;;;;;2.55;1.17;;;;;;;;;;5013574;28;20407;-74
2023/01/16 06:51:28;;;;;;;3.65;1.33;;;;;;;;;;5013646;28;20056;-74
2023/01/16 06:53:54;;;;;;;3.03;1.13;;;;;;;;;;5013435;28;20042;-74
2023/01/16 06:56:23;;;;;;;4.05;1.40;;;;;;;;;;5013994;28;20084;-73
2023/01/16 06:58:50;;;;;;;4.20;0.98;;;;;;;;;;5013520;28;20050;-74
2023/01/16 07:01:17;;;;;;;2.50;0.80;;;;;;;;;;5013852;28;20485;-74
2023/01/16 07:03:44;;;;;;;2.75;1.40;;;;;;;;;;5013284;28;20480;-72
2023/01/16 07:06:12;;;;;;;2.25;0.90;;;;;;;;;;4998832;28;20048;-73
2023/01/16 07:08:39;;;;;;;2.70;1.17;;;;;;;;;;5005819;28;20050;-73
2023/01/16 07:11:06;;;;;;;3.00;1.08;;;;;;;;;;5014740;28;20568;-72
2023/01/16 07:13:34;;;;;;;4.55;1.20;;;;;;;;;;5012540;28;20452;-74
2023/01/16 07:24:18;;;;;;;2.67;1.30;;;;;;;;;;5012520;28;20088;-72
2023/01/16 07:26:49;;;;;;;3.05;1.23;;;;;;;;;;5013906;28;20046;-73
2023/01/16 07:29:17;;;;;;;2.45;1.23;;;;;;;;;;5013830;28;20476;-72
2023/01/16 07:31:44;;;;;;;2.90;1.35;;;;;;;;;;5012867;28;20045;-73
2023/01/16 07:34:11;;;;;;;2.75;1.40;;;;;;;;;;5013126;28;20050;-73
2023/01/16 07:36:38;;;;;;;2.78;1.25;;;;;;;;;;5013952;28;20389;-75
2023/01/16 07:39:04;;;;;;;2.90;1.23;;;;;;;;;;5013639;28;20137;-74
2023/01/16 07:41:31;;;;;;;3.10;1.35;;;;;;;;;;5013384;28;20137;-73
2023/01/16 07:43:57;;;;;;;2.60;1.08;;;;;;;;;;5012728;28;20045;-74
2023/01/16 07:46:25;;;;;;;3.38;1.13;;;;;;;;;;5012716;28;20416;-74
2023/01/16 07:48:53;;;;;;;2.85;1.13;;;;;;;;;;5013075;28;20052;-74
2023/01/16 07:51:20;;;;;;;3.08;1.30;;;;;;;;;;5012552;28;20081;-74
2023/01/16 07:53:46;;;;;;;3.53;1.05;;;;;;;;;;5012515;28;20056;-73
2023/01/16 07:56:13;;;;;;;3.25;1.40;;;;;;;;;;5013753;28;20497;-74
2023/01/16 07:58:42;;;;;;;3.35;1.20;;;;;;;;;;5010129;28;20133;-73
2023/01/16 08:01:09;;;;;;;3.28;1.55;;;;;;;;;;5013217;28;20042;-73
2023/01/16 08:03:38;;;;;;;4.30;1.50;;;;;;;;;;5022008;28;20080;-75
2023/01/16 08:06:06;;;;;;;5.07;1.52;;;;;;;;;;5017257;28;20108;-72
2023/01/16 08:08:33;;;;;;;4.28;1.42;;;;;;;;;;5008072;28;20044;-73
2023/01/16 08:11:35;;;;;;;4.00;1.52;;;;;;;;;;5011398;28;20056;-74
2023/01/16 08:13:50;;;;;;;5.90;1.75;;;;;;;;;;5011490;28;20054;-74
2023/01/16 08:16:17;;;;;;;3.58;1.50;;;;;;;;;;5013557;28;20542;-73
2023/01/16 08:18:48;;;;;;;3.72;1.70;;;;;;;;;;5012146;28;20121;-75
2023/01/16 08:21:15;;;;;;;3.80;1.40;;;;;;;;;;4996604;28;20092;-73
2023/01/16 08:23:44;;;;;;;4.13;1.80;;;;;;;;;;5005919;28;20219;-74
2023/01/16 08:26:11;;;;;;;3.10;1.65;;;;;;;;;;5005900;28;21558;-73
2023/01/16 08:28:38;;;;;;;5.20;1.70;;;;;;;;;;5017170;28;20046;-73
2023/01/16 08:31:08;;;;;;;3.58;1.58;;;;;;;;;;5030511;28;20050;-72
2023/01/16 08:33:36;;;;;;;4.00;1.70;;;;;;;;;;5032555;28;20577;-73
2023/01/16 08:36:07;;;;;;;3.70;1.38;;;;;;;;;;5018594;28;20053;-72
2023/01/16 08:38:34;;;;;;;5.10;1.73;;;;;;;;;;5000039;28;20057;-74
2023/01/16 08:41:01;;;;;;;3.78;1.77;;;;;;;;;;5004770;28;20081;-74
2023/01/16 08:51:52;;;;;;;4.95;2.22;;;;;;;;;;5014942;28;20137;-74
2023/01/16 08:54:22;;;;;;;4.45;1.90;;;;;;;;;;5017159;28;20045;-73
2023/01/16 08:56:49;;;;;;;5.28;2.72;;;;;;;;;;5014973;28;20042;-73
2023/01/16 08:59:16;;;;;;;4.35;2.17;;;;;;;;;;5015194;28;20100;-73
2023/01/16 09:01:43;;;;;;;5.35;2.33;;;;;;;;;;5014350;28;20448;-74
2023/01/16 09:04:10;;;;;;;6.13;2.47;;;;;;;;;;5013504;28;20056;-73
2023/01/16 09:06:37;;;;;;;7.95;3.72;;;;;;;;;;4995174;28;20077;-73
2023/01/16 09:09:06;;;;;;;6.57;2.53;;;;;;;;;;5002271;28;20056;-72
2023/01/16 09:14:18;;;;;;;7.25;2.65;;;;;;;;;;5022784;28;20053;-75
2023/01/16 09:16:45;;;;;;;5.47;2.40;;;;;;;;;;5016647;28;20103;-73
2023/01/16 09:19:11;;;;;;;5.28;2.95;;;;;;;;;;5015391;28;20076;-74
2023/01/16 09:21:38;;;;;;;6.70;2.65;;;;;;;;;;5016422;28;20052;-75
2023/01/16 09:24:08;;;;;;;4.97;2.50;;;;;;;;;;5016555;28;20772;-81
2023/01/16 09:26:35;;;;;;;7.32;2.72;;;;;;;;;;5024546;28;20098;-73
2023/01/16 09:29:01;;;;;;;4.45;2.20;;;;;;;;;;5017682;28;20049;-75
2023/01/16 09:31:28;;;;;;;4.60;2.38;;;;;;;;;;5011472;28;20134;-74
2023/01/16 09:33:55;;;;;;;4.07;2.45;;;;;;;;;;5011068;28;20046;-73
2023/01/16 09:36:22;;;;;;;3.58;1.88;;;;;;;;;;5013204;28;20045;-76
2023/01/16 09:38:49;;;;;;;5.95;2.53;;;;;;;;;;5000290;28;20386;-74
2023/01/16 09:44:01;;;;;;;4.53;2.10;;;;;;;;;;5012519;28;20492;-73
2023/01/16 09:46:30;;;;;;;4.63;2.00;;;;;;;;;;5013238;28;20046;-72
2023/01/16 09:49:00;;;;;;;4.55;2.05;;;;;;;;;;5013353;28;20041;-75
2023/01/16 09:51:32;;;;;;;3.97;1.80;;;;;;;;;;5013124;28;20076;-73
2023/01/16 09:59:38;;;;;;;2.53;1.40;;;;;;;;;;5012719;28;20060;-72
2023/01/16 10:02:18;;;;;;;3.20;1.60;;;;;;;;;;5012509;28;20042;-72
2023/01/16 10:04:46;;;;;;;3.45;1.60;;;;;;;;;;5012909;28;20081;-73
2023/01/16 10:07:37;;;;;;;3.13;1.50;;;;;;;;;;5012082;28;20081;-71
2023/01/16 10:10:15;;;;;;;4.00;1.42;;;;;;;;;;5012541;28;20118;-73
2023/01/16 10:12:51;;;;;;;4.03;1.60;;;;;;;;;;5002522;28;20054;-73
2023/01/16 10:15:25;;;;;;;2.83;1.38;;;;;;;;;;5012914;28;20127;-72
2023/01/16 10:18:08;;;;;;;2.53;1.30;;;;;;;;;;5012870;28;20057;-73
2023/01/16 10:20:54;;;;;;;3.40;1.45;;;;;;;;;;5012451;28;20137;-72
2023/01/16 10:23:40;;;;;;;3.40;1.40;;;;;;;;;;5009433;28;20050;-73
2023/01/16 10:26:09;;;;;;;4.07;1.35;;;;;;;;;;5010269;28;20042;-72
2023/01/16 10:28:52;;;;;;;5.18;1.50;;;;;;;;;;5011023;28;20042;-73
2023/01/16 10:31:24;;;;;;;2.45;1.25;;;;;;;;;;4995639;28;20065;-72
2023/01/16 10:33:56;;;;;;;2.72;1.30;;;;;;;;;;5008755;28;20076;-72
2023/01/16 10:36:27;;;;;;;3.65;1.45;;;;;;;;;;5010924;28;20054;-72
2023/01/16 10:38:56;;;;;;;4.03;1.55;;;;;;;;;;5011368;28;20145;-71
2023/01/16 10:49:56;;;;;;;5.68;1.60;;;;;;;;;;5009649;28;20790;-71
2023/01/16 10:52:24;;;;;;;4.55;1.92;;;;;;;;;;5009840;28;20130;-71
2023/01/16 10:54:52;;;;;;;3.58;2.03;;;;;;;;;;5009999;28;20061;-72
2023/01/16 10:57:20;;;;;;;5.60;1.50;;;;;;;;;;5010031;28;20084;-72
2023/01/16 10:59:52;;;;;;;4.28;1.40;;;;;;;;;;5009945;28;20092;-70
2023/01/16 11:02:23;;;;;;;5.53;1.75;;;;;;;;;;5010398;28;20484;-71
2023/01/16 11:04:50;;;;;;;5.97;1.38;;;;;;;;;;4998019;28;20049;-71
2023/01/16 11:07:19;;;;;;;2.50;1.30;;;;;;;;;;5011761;28;20048;-72
2023/01/16 11:09:47;;;;;;;5.72;1.50;;;;;;;;;;5012032;28;20133;-73
2023/01/16 11:20:45;;;;;;;5.00;1.60;;;;;;;;;;4991816;28;20424;-73
2023/01/16 11:23:18;;;;;;;3.80;1.52;;;;;;;;;;4992638;28;20049;-73
2023/01/16 11:25:47;;;;;;;2.53;1.30;;;;;;;;;;4995718;28;20038;-75
2023/01/16 11:28:19;;;;;;;2.63;1.27;;;;;;;;;;4991487;28;20061;-73
2023/01/16 11:30:48;;;;;;;3.53;1.25;;;;;;;;;;4990389;28;20049;-72
2023/01/16 11:33:17;;;;;;;6.05;1.42;;;;;;;;;;4988047;28;20130;-73
2023/01/16 11:35:51;;;;;;;4.68;1.63;;;;;;;;;;4990975;28;20133;-74
2023/01/16 11:38:18;;;;;;;2.63;1.00;;;;;;;;;;4990897;28;20617;-74
2023/01/16 11:40:47;;;;;;;2.53;1.40;;;;;;;;;;4990892;28;20078;-72
2023/01/16 11:46:11;;;;;;;4.25;2.05;;;;;;;;;;4990190;28;20050;-74
2023/01/16 11:48:40;;;;;;;3.47;1.50;;;;;;;;;;4988510;28;20057;-73
2023/01/16 11:51:12;;;;;;;2.42;1.40;;;;;;;;;;4991188;28;20137;-74
2023/01/16 11:53:39;;;;;;;2.90;1.30;;;;;;;;;;4971816;28;20113;-72
2023/01/16 11:56:27;;;;;;;4.28;1.58;;;;;;;;;;4971697;28;20050;-74
2023/01/16 11:59:07;;;;;;;3.38;1.52;;;;;;;;;;4971240;28;20082;-73
2023/01/16 12:04:30;;;;;;;5.28;1.65;;;;;;;;;;4974365;28;20521;-75
2023/01/16 12:07:11;;;;;;;3.50;1.33;;;;;;;;;;4990981;28;20073;-73
2023/01/16 12:09:48;;;;;;;2.53;1.20;;;;;;;;;;4991116;28;20130;-73
2023/01/16 12:15:12;;;;;;;3.40;1.20;;;;;;;;;;4991035;28;20156;-73
2023/01/16 12:17:56;;;;;;;2.78;1.30;;;;;;;;;;4990785;28;20531;-75
2023/01/16 12:20:34;;;;;;;7.82;2.08;;;;;;;;;;4991023;28;20093;-73
2023/01/16 12:23:25;;;;;;;4.13;1.50;;;;;;;;;;4990663;28;20069;-72
2023/01/16 12:25:56;;;;;;;;;;;;;;;;;;4991707;28;20038;-76
2023/01/16 12:28:33;;;;;;;2.70;1.42;;;;;;;;;;4991047;28;19925;-73
2023/01/16 12:31:30;;;;;;;4.57;1.27;;;;;;;;;;4990925;28;20074;-74
2023/01/16 12:34:16;;;;;;;2.97;1.20;;;;;;;;;;4991606;28;20442;-74
2023/01/16 12:36:58;;;;;;;3.22;1.35;;;;;;;;;;4991904;28;20089;-75
2023/01/16 12:39:35;;;;;;;3.17;1.63;;;;;;;;;;4991497;28;20050;-73
2023/01/16 12:45:13;;;;;;;2.38;1.10;;;;;;;;;;4991134;28;20053;-73
2023/01/16 12:47:53;;;;;;;3.63;1.50;;;;;;;;;;4991285;28;20077;-73
2023/01/16 12:50:33;;;;;;;3.63;1.40;;;;;;;;;;4991335;28;20086;-73
2023/01/16 12:53:17;;;;;;;3.65;1.40;;;;;;;;;;4991092;28;20134;-73
2023/01/16 12:55:56;;;;;;;3.90;1.52;;;;;;;;;;4991009;28;20134;-73
2023/01/16 12:58:26;;;;;;;4.55;1.70;;;;;;;;;;4992404;28;20142;-79
2023/01/16 13:01:08;;;;;;;5.68;1.98;;;;;;;;;;4994244;28;20055;-80
2023/01/16 13:03:40;;;;;;;3.90;1.42;;;;;;;;;;4992985;28;20116;-74
2023/01/16 13:06:13;;;;;;;4.50;1.40;;;;;;;;;;5003179;28;20120;-72
2023/01/16 13:08:45;;;;;;;3.30;1.35;;;;;;;;;;5000461;28;20054;-74
2023/01/16 13:14:04;;;;;;;5.18;1.63;;;;;;;;;;4993705;28;20519;-73
2023/01/16 13:16:35;;;;;;;3.20;1.45;;;;;;;;;;4993783;28;20062;-74
2023/01/16 13:19:06;;;;;;;3.58;1.30;;;;;;;;;;4993938;28;20066;-74
2023/01/16 13:21:40;;;;;;;2.75;1.27;;;;;;;;;;4994403;28;20105;-75
2023/01/16 13:24:15;;;;;;;3.60;1.52;;;;;;;;;;4994333;28;20126;-74
2023/01/16 13:26:42;;;;;;;2.90;1.48;;;;;;;;;;4993938;28;20057;-73
2023/01/16 13:29:14;;;;;;;3.22;1.80;;;;;;;;;;4992913;28;20794;-73
2023/01/16 13:31:46;;;;;;;3.30;1.50;;;;;;;;;;4993708;28;20509;-75
2023/01/16 13:34:19;;;;;;;4.57;1.83;;;;;;;;;;4993660;28;20046;-75
2023/01/16 13:37:27;;;;;;;4.78;1.90;;;;;;;;;;4993818;28;20077;-73
2023/01/16 13:40:19;;;;;;;3.17;1.55;;;;;;;;;;4952454;29;20047;-74
2023/01/16 13:42:53;;;;;;;4.82;2.03;;;;;;;;;;4992510;28;20086;-76
2023/01/16 13:45:49;;;;;;;4.38;1.40;;;;;;;;;;4993500;28;20422;-74
2023/01/16 13:48:17;;;;;;;3.80;1.40;;;;;;;;;;4993835;28;20050;-74
2023/01/16 13:50:49;;;;;;;5.03;1.75;;;;;;;;;;4993461;28;20047;-74
2023/01/16 13:53:19;;;;;;;4.20;1.70;;;;;;;;;;4993670;28;20050;-73
2023/01/16 13:55:46;;;;;;;3.63;1.80;;;;;;;;;;4993870;28;20121;-74
2023/01/16 13:58:17;;;;;;;3.50;1.85;;;;;;;;;;4993349;28;20042;-74
2023/01/16 14:00:45;;;;;;;4.00;1.70;;;;;;;;;;4993719;28;20066;-74
2023/01/16 14:03:22;;;;;;;3.95;1.60;;;;;;;;;;4993978;28;20133;-74
2023/01/16 14:05:51;;;;;;;3.97;1.58;;;;;;;;;;4981358;28;20051;-74
2023/01/16 14:11:29;;;;;;;3.28;1.75;;;;;;;;;;4977830;28;20131;-73
2023/01/16 14:16:30;;;;;;;3.38;1.63;;;;;;;;;;4979097;28;20134;-75
2023/01/16 14:17:08;;;;;;;3.28;1.63;;;;;;;;;;4974235;28;20063;-75
2023/01/16 14:19:39;;;;;;;4.20;1.80;;;;;;;;;;4974034;28;20054;-74
2023/01/16 14:24:54;;;;;;;4.75;2.00;;;;;;;;;;4973585;28;20058;-74
2023/01/16 14:27:24;;;;;;;4.13;1.50;;;;;;;;;;4973591;28;20138;-76
2023/01/16 14:29:55;;;;;;;5.38;1.70;;;;;;;;;;4973564;28;20139;-75
2023/01/16 14:32:25;;;;;;;3.78;1.67;;;;;;;;;;4972874;28;20634;-74
2023/01/16 14:34:55;;;;;;;3.55;1.80;;;;;;;;;;4973070;28;20078;-74
2023/01/16 14:37:25;;;;;;;12.20;2.33;;;;;;;;;;4973164;28;20495;-73
2023/01/16 14:39:56;;;;;;;3.70;1.80;;;;;;;;;;4973635;28;20413;-73
2023/01/16 14:56:45;;;;;;;4.00;1.45;;;;;;;;;;4927577;28;20572;-74
2023/01/16 14:59:17;;;;;;;4.57;1.60;;;;;;;;;;4975399;28;20047;-76
2023/01/16 15:04:42;;;;;;;2.80;1.20;;;;;;;;;;4991943;28;20057;-74
2023/01/16 15:07:13;;;;;;;4.03;1.38;;;;;;;;;;4991875;28;20053;-75
2023/01/16 15:09:43;;;;;;;2.22;1.20;;;;;;;;;;4992369;28;20054;-75
2023/01/16 15:12:14;;;;;;;3.00;1.30;;;;;;;;;;4992255;28;20528;-75
2023/01/16 15:14:52;;;;;;;3.75;1.50;;;;;;;;;;4992373;28;20046;-75
2023/01/16 15:23:19;;;;;;;3.63;1.70;;;;;;;;;;4936175;28;20056;-74
2023/01/16 15:26:24;;;;;;;3.75;1.85;;;;;;;;;;4992282;28;20535;-74
2023/01/16 15:29:01;;;;;;;4.00;1.65;;;;;;;;;;4992338;28;20134;-73
2023/01/16 15:31:31;;;;;;;3.97;1.63;;;;;;;;;;4991174;28;20556;-74
2023/01/16 15:34:03;;;;;;;4.25;1.50;;;;;;;;;;4992086;28;20140;-73
2023/01/16 15:36:37;;;;;;;4.05;1.30;;;;;;;;;;4993393;28;20102;-74
2023/01/16 15:39:22;;;;;;;3.72;1.30;;;;;;;;;;4993580;28;20534;-73
2023/01/16 15:47:38;;;;;;;4.40;1.50;;;;;;;;;;4991295;28;20072;-74
2023/01/16 15:50:18;;;;;;;3.88;1.42;;;;;;;;;;4991660;28;20042;-75
2023/01/16 15:52:44;;;;;;;2.80;1.20;;;;;;;;;;4991281;28;20095;-74
2023/01/16 15:55:18;;;;;;;4.50;1.75;;;;;;;;;;4991409;28;20088;-73
2023/01/16 15:57:47;;;;;;;4.57;1.50;;;;;;;;;;4991177;28;20109;-74
2023/01/16 16:00:31;;;;;;;3.47;1.33;;;;;;;;;;4991123;28;20125;-76
2023/01/16 16:03:07;;;;;;;4.35;1.73;;;;;;;;;;4991237;28;20086;-76
2023/01/16 16:05:35;;;;;;;4.00;1.63;;;;;;;;;;4991306;28;20082;-74
2023/01/16 16:08:03;;;;;;;3.65;1.52;;;;;;;;;;4991184;28;20545;-74
2023/01/16 16:13:18;;;;;;;4.22;1.55;;;;;;;;;;4990649;28;20073;-75
2023/01/16 16:19:03;;;;;;;3.42;1.42;;;;;;;;;;4991146;28;20070;-76
2023/01/16 16:21:35;;;;;;;6.97;2.38;;;;;;;;;;4991477;28;20056;-74
2023/01/16 16:24:05;;;;;;;4.65;1.75;;;;;;;;;;4992535;28;20046;-75
2023/01/16 16:26:34;;;;;;;3.53;1.65;;;;;;;;;;4991512;28;20046;-77
2023/01/16 16:29:01;;;;;;;5.18;1.92;;;;;;;;;;4989778;28;20081;-76
2023/01/16 16:31:32;;;;;;;5.55;1.83;;;;;;;;;;4990987;28;20046;-75
2023/01/16 16:34:02;;;;;;;5.18;1.52;;;;;;;;;;4991812;28;20112;-75
2023/01/16 16:36:29;;;;;;;5.93;2.13;;;;;;;;;;4992077;28;20052;-76
2023/01/16 16:38:57;;;;;;;6.72;2.83;;;;;;;;;;4991325;28;20074;-76
2023/01/16 16:44:38;;;;;;;7.40;2.90;;;;;;;;;;4991909;28;20520;-77
2023/01/16 16:47:25;;;;;;;7.43;2.90;;;;;;;;;;4992313;28;20051;-76
2023/01/16 16:49:52;;;;;;;7.05;2.30;;;;;;;;;;4994188;28;20513;-77
2023/01/16 16:52:32;;;;;;;7.53;3.90;;;;;;;;;;4995034;28;20551;-77
2023/01/16 16:55:00;;;;;;;8.02;3.38;;;;;;;;;;4996073;28;20069;-75
2023/01/16 16:57:41;;;;;;;5.75;2.65;;;;;;;;;;4995493;28;20046;-74